Time;durP1;ratioP1;P1;durP2;ratioP2;P2;SDS_P1;SDS_P2;PMS_P1;PMS_P2;Temp;Humidity;BMP_temperature;BMP_pressure;BME280_temperature;BME280_humidity;BME280_pressure;Samples;Min_cycle;Max_cycle;Signal;HPM_P1;HPM_P2
2021/11/20 00:00:22;;;;;;;2.58;2.37;;;;;;;12.56;55.17;98604.97;1761899;80;21060;-60
2021/11/20 00:02:50;;;;;;;3.02;2.40;;;;;;;12.56;55.19;98596.45;1778477;80;21033;-59
2021/11/20 00:05:21;;;;;;;2.37;2.08;;;;;;;12.56;55.22;98595.64;1769546;80;21029;-59
2021/11/20 00:07:47;;;;;;;2.30;2.10;;;;;;;12.55;55.19;98589.47;1768345;80;21073;-59
2021/11/20 00:10:16;;;;;;;2.45;2.22;;;;;;;12.57;55.20;98588.78;1757268;79;21141;-60
2021/11/20 00:12:42;;;;;;;2.60;2.20;;;;;;;12.57;55.21;98587.45;1762207;80;21104;-59
2021/11/20 00:15:14;;;;;;;2.05;1.90;;;;;;;12.57;55.21;98583.94;1773845;80;21045;-59
2021/11/20 00:17:43;;;;;;;2.27;2.08;;;;;;;12.57;55.22;98586.11;1760288;80;21048;-59
2021/11/20 00:20:12;;;;;;;2.47;2.20;;;;;;;12.58;55.21;98584.26;1753690;80;21139;-60
2021/11/20 00:22:42;;;;;;;2.27;2.08;;;;;;;12.58;55.17;98575.75;1777510;80;21013;-59
2021/11/20 00:25:23;;;;;;;3.15;2.25;;;;;;;12.59;55.20;98568.56;1760533;80;21980;-60
2021/11/20 00:27:53;;;;;;;2.40;1.70;;;;;;;12.60;55.20;98576.88;1761981;80;21085;-60
2021/11/20 00:30:24;;;;;;;2.33;2.12;;;;;;;12.59;55.19;98565.41;1752426;80;21087;-60
2021/11/20 00:33:05;;;;;;;2.45;2.17;;;;;;;12.59;55.21;98558.75;1766646;80;21077;-59
2021/11/20 00:35:40;;;;;;;2.50;2.30;;;;;;;12.60;55.20;98555.56;1761562;80;21030;-59
2021/11/20 00:38:09;;;;;;;2.10;1.90;;;;;;;12.60;55.21;98550.23;1767955;80;21047;-60
2021/11/20 00:40:41;;;;;;;1.77;1.67;;;;;;;12.60;55.22;98548.91;1773774;79;21117;-59
2021/11/20 00:43:08;;;;;;;2.00;1.80;;;;;;;12.61;55.22;98531.06;1776635;80;21041;-59
2021/11/20 00:45:36;;;;;;;2.10;1.90;;;;;;;12.61;55.22;98539.86;1768764;80;21054;-60
2021/11/20 00:48:05;;;;;;;2.22;2.02;;;;;;;12.61;55.25;98529.73;1768215;79;21002;-60
2021/11/20 00:50:33;;;;;;;2.62;1.95;;;;;;;12.62;55.25;98530.86;1770884;79;21123;-59
2021/11/20 00:52:59;;;;;;;2.00;1.80;;;;;;;12.63;55.25;98520.48;1779505;80;21076;-60
2021/11/20 00:55:28;;;;;;;2.60;2.30;;;;;;;12.63;55.25;98507.69;1766622;80;21104;-60
2021/11/20 00:57:57;;;;;;;2.00;1.80;;;;;;;12.63;55.24;98504.50;1758446;80;21494;-59
2021/11/20 01:00:31;;;;;;;1.90;1.80;;;;;;;12.65;55.23;98508.30;1783124;80;21026;-61
2021/11/20 01:03:51;;;;;;;2.10;1.90;;;;;;;12.68;55.28;98490.04;1841637;76;28469;-59
2021/11/20 01:06:18;;;;;;;2.17;1.98;;;;;;;12.65;55.23;98481.65;1790417;78;21535;-59
2021/11/20 01:08:48;;;;;;;1.70;1.60;;;;;;;12.66;55.22;98480.63;1797157;78;21119;-60
2021/11/20 01:11:32;;;;;;;1.60;1.50;;;;;;;12.67;55.21;98476.92;1804755;77;21494;-61
2021/11/20 01:14:01;;;;;;;1.72;1.60;;;;;;;12.67;55.24;98481.76;1810530;77;20977;-59
2021/11/20 01:16:30;;;;;;;2.02;1.87;;;;;;;12.67;55.24;98475.09;1826378;77;21012;-61
2021/11/20 01:18:58;;;;;;;2.33;1.98;;;;;;;12.67;55.27;98465.77;1808331;78;20996;-60
2021/11/20 01:21:33;;;;;;;1.75;1.65;;;;;;;12.68;55.26;98460.73;1761923;78;21828;-61
2021/11/20 01:24:01;;;;;;;1.90;1.80;;;;;;;12.69;55.26;98449.55;1806314;78;21495;-59
2021/11/20 01:26:28;;;;;;;1.72;1.60;;;;;;;12.68;55.28;98447.41;1794870;77;21033;-60
2021/11/20 01:28:57;;;;;;;2.10;1.70;;;;;;;12.68;55.26;98436.75;1797641;78;21028;-59
2021/11/20 01:31:28;;;;;;;2.15;1.95;;;;;;;12.69;55.26;98439.73;1811985;77;21012;-60
2021/11/20 01:33:55;;;;;;;1.80;1.70;;;;;;;12.70;55.26;98433.36;1793774;77;21815;-60
2021/11/20 01:36:26;;;;;;;1.92;1.80;;;;;;;12.69;55.26;98418.41;1799673;77;21033;-60
2021/11/20 01:38:56;;;;;;;1.42;1.32;;;;;;;12.71;55.27;98424.34;1795852;78;21091;-60
2021/11/20 01:41:26;;;;;;;2.42;2.22;;;;;;;12.73;55.29;98420.14;1817372;77;21039;-60
2021/11/20 01:44:18;;;;;;;2.37;2.15;;;;;;;12.73;55.29;98413.48;1793812;77;21673;-60
2021/11/20 01:46:50;;;;;;;2.10;1.92;;;;;;;12.73;55.30;98418.81;1814543;77;21083;-59
2021/11/20 01:49:24;;;;;;;2.22;2.02;;;;;;;12.72;55.31;98403.31;1809805;78;21012;-59
2021/11/20 01:52:11;;;;;;;2.22;1.92;;;;;;;12.72;55.32;98402.50;1804149;78;21055;-60
2021/11/20 01:55:16;;;;;;;1.72;1.57;;;;;;;12.72;55.31;98393.98;1805432;77;21036;-59
2021/11/20 01:58:03;;;;;;;1.80;1.70;;;;;;;12.73;55.32;98393.50;1784890;77;21123;-59
2021/11/20 02:00:54;;;;;;;1.85;1.65;;;;;;;12.72;55.33;98384.66;1811160;78;21080;-59
2021/11/20 02:03:32;;;;;;;1.82;1.62;;;;;;;12.72;55.35;98388.66;1800589;77;21001;-59
2021/11/20 02:06:12;;;;;;;1.80;1.70;;;;;;;12.72;55.37;98379.33;1798942;78;21040;-60
2021/11/20 02:08:52;;;;;;;1.90;1.80;;;;;;;12.72;55.38;98378.52;1807857;78;21054;-61
2021/11/20 02:11:25;;;;;;;1.65;1.55;;;;;;;12.73;55.39;98376.17;1768546;77;21072;-62
2021/11/20 02:13:52;;;;;;;1.80;1.70;;;;;;;12.74;55.39;98371.13;1792644;78;22412;-60
2021/11/20 02:16:25;;;;;;;1.90;1.80;;;;;;;12.74;55.39;98364.47;1788952;78;21005;-61
2021/11/20 02:18:56;;;;;;;2.15;1.95;;;;;;;12.74;55.39;98361.28;1795882;77;21089;-61
2021/11/20 02:21:34;;;;;;;1.90;1.70;;;;;;;12.76;55.38;98365.06;1802833;77;21051;-61
2021/11/20 02:24:01;;;;;;;1.98;1.80;;;;;;;12.76;55.37;98367.20;1789046;77;21034;-60
2021/11/20 02:26:30;;;;;;;1.70;1.60;;;;;;;12.77;55.37;98368.86;1788393;77;21136;-61
2021/11/20 02:29:02;;;;;;;1.87;1.72;;;;;;;12.78;55.35;98360.34;1791881;78;21568;-59
2021/11/20 02:31:30;;;;;;;1.80;1.50;;;;;;;12.79;55.33;98357.98;1791316;78;21077;-60
2021/11/20 02:33:57;;;;;;;1.52;1.42;;;;;;;12.80;55.33;98348.94;1793678;77;21520;-60
2021/11/20 02:36:24;;;;;;;2.37;1.90;;;;;;;12.82;55.31;98350.88;1758614;79;21603;-59
2021/11/20 02:39:07;;;;;;;1.82;1.60;;;;;;;12.83;55.27;98353.05;1751507;80;21109;-61
2021/11/20 02:41:36;;;;;;;1.80;1.70;;;;;;;12.84;55.26;98346.14;1729044;80;21041;-60
2021/11/20 02:44:04;;;;;;;2.00;1.80;;;;;;;12.85;55.23;98338.98;1751745;80;21061;-60
2021/11/20 02:46:34;;;;;;;1.57;1.47;;;;;;;12.86;55.25;98341.41;1711609;81;21041;-61
2021/11/20 02:49:02;;;;;;;1.95;1.65;;;;;;;12.86;55.23;98334.74;1753059;80;21501;-60
2021/11/20 02:51:33;;;;;;;1.60;1.50;;;;;;;12.87;55.20;98339.58;1752987;79;21957;-59
2021/11/20 02:54:03;;;;;;;1.90;1.62;;;;;;;12.89;55.17;98339.66;1739836;80;21526;-60
2021/11/20 02:56:34;;;;;;;1.67;1.57;;;;;;;12.90;55.13;98325.80;1744390;80;20998;-60
2021/11/20 02:59:02;;;;;;;1.60;1.50;;;;;;;12.91;55.12;98325.59;1732352;80;21079;-60
2021/11/20 03:01:34;;;;;;;1.40;1.30;;;;;;;12.92;55.10;98331.23;1747736;80;21033;-60
2021/11/20 03:04:06;;;;;;;2.08;1.70;;;;;;;12.93;55.08;98330.19;1746832;80;21143;-60
2021/11/20 03:06:34;;;;;;;1.60;1.50;;;;;;;12.95;55.08;98320.64;1741705;80;21040;-60
2021/11/20 03:09:02;;;;;;;1.57;1.47;;;;;;;12.96;55.07;98323.59;1758741;80;21028;-60
2021/11/20 03:11:29;;;;;;;1.65;1.55;;;;;;;12.96;55.04;98327.09;1751526;80;21033;-59
2021/11/20 03:13:57;;;;;;;1.80;1.70;;;;;;;12.97;55.04;98324.71;1742471;80;21055;-60
2021/11/20 03:16:27;;;;;;;2.45;1.60;;;;;;;12.98;55.00;98317.55;1737879;80;21048;-60
2021/11/20 03:18:54;;;;;;;2.05;1.57;;;;;;;13.00;54.98;98332.81;1744768;80;20993;-60
2021/11/20 03:21:20;;;;;;;1.55;1.45;;;;;;;13.00;54.96;98327.48;1744528;80;21536;-59
2021/11/20 03:23:50;;;;;;;1.82;1.70;;;;;;;13.02;54.95;98332.57;1746982;79;21511;-61
2021/11/20 03:26:17;;;;;;;1.62;1.40;;;;;;;13.03;54.93;98336.88;1747774;80;21044;-60
2021/11/20 03:28:44;;;;;;;1.37;1.27;;;;;;;13.04;54.93;98334.50;1755810;80;21103;-60
2021/11/20 03:31:11;;;;;;;1.72;1.55;;;;;;;13.05;54.91;98339.62;1746327;80;21092;-60
2021/11/20 03:33:38;;;;;;;1.65;1.55;;;;;;;13.05;54.88;98328.95;1750706;80;21021;-59
2021/11/20 03:36:05;;;;;;;1.67;1.57;;;;;;;13.06;54.87;98328.45;1778396;79;21500;-60
2021/11/20 03:38:32;;;;;;;1.40;1.30;;;;;;;13.07;54.89;98337.55;1744779;81;21040;-62
2021/11/20 03:41:00;;;;;;;1.27;1.17;;;;;;;13.08;54.86;98325.86;1726795;82;21114;-61
2021/11/20 03:43:27;;;;;;;1.40;1.30;;;;;;;13.08;54.84;98331.20;1822438;77;21540;-60
2021/11/20 03:45:54;;;;;;;1.42;1.32;;;;;;;13.09;54.84;98334.67;1810465;78;21068;-60
2021/11/20 03:48:20;;;;;;;1.70;1.60;;;;;;;13.11;54.82;98345.41;1819839;78;21028;-60
2021/11/20 03:50:47;;;;;;;1.40;1.30;;;;;;;13.11;54.80;98327.27;1805371;78;20988;-60
2021/11/20 03:53:14;;;;;;;1.40;1.30;;;;;;;13.11;54.81;98322.74;1799306;78;21055;-61
2021/11/20 03:55:44;;;;;;;1.80;1.32;;;;;;;13.13;54.79;98333.19;1759439;80;22138;-62
2021/11/20 03:58:11;;;;;;;1.32;1.22;;;;;;;13.13;54.80;98336.70;1791738;78;21013;-61
2021/11/20 04:00:43;;;;;;;1.50;1.40;;;;;;;13.13;54.78;98330.03;1787680;78;21002;-61
2021/11/20 04:03:09;;;;;;;1.62;1.40;;;;;;;13.14;54.77;98324.98;1756742;79;21060;-59
2021/11/20 04:05:37;;;;;;;1.27;1.17;;;;;;;13.16;54.78;98334.10;1724232;81;21226;-60
2021/11/20 04:08:04;;;;;;;1.70;1.40;;;;;;;13.15;54.78;98333.30;1765284;79;21036;-60
2021/11/20 04:10:31;;;;;;;1.50;1.40;;;;;;;13.16;54.76;98336.24;1774223;78;21056;-61
2021/11/20 04:12:59;;;;;;;1.22;1.15;;;;;;;13.17;54.78;98339.22;1806258;77;21052;-61
2021/11/20 04:15:26;;;;;;;1.55;1.30;;;;;;;13.18;54.76;98338.70;1786297;78;21494;-60
2021/11/20 04:17:54;;;;;;;1.20;1.10;;;;;;;13.17;54.72;98328.55;1797232;77;21058;-60
2021/11/20 04:20:22;;;;;;;1.57;1.47;;;;;;;13.19;54.74;98338.98;1788602;78;21009;-60
2021/11/20 04:22:51;;;;;;;1.30;1.20;;;;;;;13.20;54.74;98337.15;1787860;77;21299;-60
2021/11/20 04:25:21;;;;;;;1.42;1.32;;;;;;;13.20;54.71;98334.48;1796502;79;21111;-60
2021/11/20 04:27:49;;;;;;;1.22;1.12;;;;;;;13.21;54.72;98337.44;1797305;78;21053;-61
2021/11/20 04:30:24;;;;;;;0.93;0.93;;;;;;;13.21;54.71;98354.77;1797737;77;21187;-60
2021/11/20 04:32:49;;;;;;;1.50;1.40;;;;;;;13.22;54.71;98345.75;1785800;77;21496;-61
2021/11/20 04:35:16;;;;;;;1.40;1.30;;;;;;;13.22;54.71;98345.22;1767532;79;22063;-60
2021/11/20 04:37:43;;;;;;;1.50;1.40;;;;;;;13.23;54.68;98339.36;1797239;77;21570;-60
2021/11/20 04:40:10;;;;;;;1.32;1.22;;;;;;;13.23;54.70;98344.20;1811543;78;21533;-60
2021/11/20 04:42:38;;;;;;;1.30;1.20;;;;;;;13.24;54.72;98334.34;1819569;77;22523;-60
2021/11/20 04:45:06;;;;;;;1.20;1.10;;;;;;;13.24;54.67;98342.34;1810454;78;21433;-61
2021/11/20 04:47:34;;;;;;;1.30;1.20;;;;;;;13.25;54.67;98355.95;1800083;78;21089;-61
2021/11/20 04:50:01;;;;;;;1.60;1.50;;;;;;;13.25;54.69;98351.95;1798323;78;21040;-60
2021/11/20 04:52:29;;;;;;;1.30;1.20;;;;;;;13.26;54.67;98368.27;1799815;77;21596;-60
2021/11/20 04:54:56;;;;;;;1.30;1.20;;;;;;;13.26;54.68;98365.08;1738352;80;21715;-61
2021/11/20 04:57:23;;;;;;;1.20;1.10;;;;;;;13.27;54.68;98365.88;1740742;80;21113;-60
2021/11/20 04:59:50;;;;;;;1.20;1.10;;;;;;;13.28;54.66;98362.20;1753635;79;21022;-60
2021/11/20 05:02:18;;;;;;;1.70;1.40;;;;;;;13.28;54.64;98350.20;1733074;79;21643;-59
2021/11/20 05:04:45;;;;;;;1.40;1.30;;;;;;;13.29;54.65;98346.48;1803693;77;21087;-60
2021/11/20 05:07:12;;;;;;;1.30;1.20;;;;;;;13.29;54.66;98356.65;1792615;78;21940;-60
2021/11/20 05:09:39;;;;;;;1.72;1.30;;;;;;;13.30;54.65;98375.63;1793028;78;22194;-60
2021/11/20 05:12:08;;;;;;;1.20;1.10;;;;;;;13.29;54.66;98364.65;1799414;79;21052;-61
2021/11/20 05:14:37;;;;;;;1.42;1.20;;;;;;;13.29;54.66;98372.66;1789030;79;21084;-60
2021/11/20 05:17:05;;;;;;;2.12;1.50;;;;;;;13.31;54.66;98377.80;1789787;77;21036;-61
2021/11/20 05:19:33;;;;;;;1.30;1.20;;;;;;;13.31;54.64;98381.80;1790102;79;21354;-60
2021/11/20 05:21:59;;;;;;;1.42;1.30;;;;;;;13.31;54.64;98386.61;1797082;78;21011;-61
2021/11/20 05:24:26;;;;;;;1.22;1.12;;;;;;;13.32;54.66;98404.76;1796473;79;21048;-61
2021/11/20 05:26:54;;;;;;;1.52;1.42;;;;;;;13.33;54.62;98383.73;1800602;79;21040;-60
2021/11/20 05:29:34;;;;;;;1.40;1.30;;;;;;;13.32;54.63;98411.42;1788091;79;21056;-61
2021/11/20 05:31:55;;;;;;;1.75;1.40;;;;;;;13.33;54.62;98402.41;1793571;78;21135;-60
2021/11/20 05:34:23;;;;;;;1.95;1.25;;;;;;;13.33;54.63;98403.73;1738248;81;21048;-60
2021/11/20 05:36:50;;;;;;;2.08;1.60;;;;;;;13.35;54.63;98415.00;1736155;82;21002;-60
2021/11/20 05:39:18;;;;;;;1.30;1.20;;;;;;;13.34;54.60;98409.35;1796526;79;21790;-60
2021/11/20 05:41:45;;;;;;;1.37;1.27;;;;;;;13.33;54.60;98423.74;1804037;79;21536;-60
2021/11/20 05:44:12;;;;;;;1.52;1.42;;;;;;;13.34;54.63;98422.16;1810371;78;21783;-61
2021/11/20 05:46:40;;;;;;;1.50;1.30;;;;;;;13.35;54.62;98424.34;1787074;79;21083;-60
2021/11/20 05:49:07;;;;;;;1.52;1.42;;;;;;;13.35;54.58;98419.00;1804046;78;21050;-59
2021/11/20 05:51:36;;;;;;;1.40;1.30;;;;;;;13.35;54.62;98427.00;1796752;79;21016;-61
2021/11/20 05:54:05;;;;;;;1.30;1.20;;;;;;;13.36;54.62;98430.77;1803482;78;21088;-61
2021/11/20 05:56:33;;;;;;;1.47;1.37;;;;;;;13.36;54.62;98432.09;1800019;79;21284;-60
2021/11/20 05:59:01;;;;;;;1.25;1.15;;;;;;;13.36;54.62;98419.28;1775554;79;20992;-60
2021/11/20 06:01:28;;;;;;;3.62;1.65;;;;;;;13.37;54.62;98420.93;1797481;79;21055;-60
2021/11/20 06:03:55;;;;;;;1.22;1.12;;;;;;;13.37;54.62;98427.08;1809078;78;21036;-62
2021/11/20 06:06:22;;;;;;;1.80;1.40;;;;;;;13.38;54.64;98419.88;1801554;78;21013;-61
2021/11/20 06:08:50;;;;;;;1.20;1.10;;;;;;;13.39;54.66;98416.72;1793849;77;21153;-60
2021/11/20 06:11:18;;;;;;;1.37;1.27;;;;;;;13.39;54.65;98413.52;1803505;78;21017;-60
2021/11/20 06:13:46;;;;;;;1.32;1.10;;;;;;;13.40;54.64;98414.34;1785579;77;21040;-63
2021/11/20 06:16:15;;;;;;;1.25;1.15;;;;;;;13.41;54.61;98418.13;1790073;78;21642;-59
2021/11/20 06:18:41;;;;;;;1.52;1.42;;;;;;;13.42;54.61;98410.93;1808578;77;21002;-61
2021/11/20 06:21:08;;;;;;;1.65;1.50;;;;;;;13.42;54.59;98425.08;1799370;78;21132;-62
2021/11/20 06:23:36;;;;;;;1.60;1.30;;;;;;;13.42;54.59;98421.07;1804059;78;21009;-61
2021/11/20 06:26:04;;;;;;;1.30;1.20;;;;;;;13.44;54.57;98428.34;1794278;78;21063;-60
2021/11/20 06:28:31;;;;;;;1.40;1.30;;;;;;;13.45;54.56;98438.52;1798034;79;21058;-61
2021/11/20 06:30:59;;;;;;;1.30;1.20;;;;;;;13.46;54.56;98438.30;1792240;78;21066;-60
2021/11/20 06:33:27;;;;;;;1.37;1.27;;;;;;;13.48;54.58;98443.39;1814223;77;21135;-61
2021/11/20 06:35:56;;;;;;;1.25;1.15;;;;;;;13.49;54.54;98439.70;1793629;78;21528;-60
2021/11/20 06:38:27;;;;;;;1.40;1.30;;;;;;;13.50;54.52;98441.33;1791710;78;21031;-60
2021/11/20 06:40:54;;;;;;;1.40;1.30;;;;;;;13.52;54.45;98430.75;1808987;77;21049;-60
2021/11/20 06:43:23;;;;;;;1.72;1.52;;;;;;;13.53;54.43;98429.70;1787883;77;21060;-60
2021/11/20 06:45:54;;;;;;;1.20;1.10;;;;;;;13.55;54.41;98436.97;1783008;78;21085;-61
2021/11/20 06:48:22;;;;;;;1.30;1.20;;;;;;;13.56;54.39;98431.13;1793313;77;21463;-61
2021/11/20 06:50:51;;;;;;;1.77;1.50;;;;;;;13.58;54.37;98435.73;1801239;78;21032;-61
2021/11/20 06:53:37;;;;;;;1.60;1.17;;;;;;;13.59;54.37;98432.01;1798853;77;21084;-60
2021/11/20 06:56:14;;;;;;;1.07;1.05;;;;;;;13.61;54.35;98433.94;1789349;78;21088;-60
2021/11/20 07:01:16;;;;;;;1.57;1.47;;;;;;;13.66;54.31;98433.30;1804434;78;22101;-61
2021/11/20 07:03:55;;;;;;;1.50;1.40;;;;;;;13.67;54.29;98422.91;1781959;78;21087;-61
2021/11/20 07:06:30;;;;;;;1.30;1.20;;;;;;;13.70;54.29;98423.81;1808274;78;21071;-59
2021/11/20 07:08:57;;;;;;;1.50;1.40;;;;;;;13.72;54.28;98427.08;1796538;77;21018;-60
2021/11/20 07:11:25;;;;;;;1.70;1.60;;;;;;;13.74;54.22;98433.01;1813946;78;21001;-61
2021/11/20 07:13:53;;;;;;;1.40;1.22;;;;;;;13.76;54.30;98429.59;1793012;77;21096;-61
2021/11/20 07:16:23;;;;;;;1.30;1.20;;;;;;;13.76;54.26;98423.73;1798537;77;21083;-60
2021/11/20 07:18:50;;;;;;;1.40;1.30;;;;;;;13.80;54.28;98405.43;1807361;77;21087;-61
2021/11/20 07:21:35;;;;;;;1.60;1.50;;;;;;;13.82;54.25;98417.23;1794003;78;21024;-60
2021/11/20 07:24:09;;;;;;;1.35;1.20;;;;;;;13.83;54.27;98414.34;1802169;77;21136;-60
2021/11/20 07:26:36;;;;;;;1.53;1.43;;;;;;;13.85;54.27;98412.27;1816747;78;21055;-60
2021/11/20 07:29:04;;;;;;;1.30;1.20;;;;;;;13.85;54.21;98408.26;1800101;78;21073;-61
2021/11/20 07:31:32;;;;;;;1.37;1.27;;;;;;;13.87;54.24;98416.86;1803784;78;21025;-60
2021/11/20 07:33:59;;;;;;;1.52;1.35;;;;;;;13.90;54.16;98420.93;1807442;77;21120;-61
2021/11/20 07:36:27;;;;;;;1.70;1.27;;;;;;;13.92;54.17;98423.66;1818212;78;21172;-60
2021/11/20 07:38:58;;;;;;;1.60;1.32;;;;;;;13.94;54.18;98420.78;1779708;78;21047;-61
2021/11/20 07:41:27;;;;;;;1.77;1.30;;;;;;;13.88;54.07;98415.80;1773297;79;21040;-60
2021/11/20 07:43:56;;;;;;;1.60;1.20;;;;;;;13.98;54.11;98415.81;1806861;77;21064;-61
2021/11/20 07:46:24;;;;;;;1.20;1.10;;;;;;;13.99;54.07;98419.61;1821892;77;21597;-60
2021/11/20 07:48:52;;;;;;;1.75;1.42;;;;;;;14.00;54.08;98425.75;1817125;77;21044;-60
2021/11/20 07:51:20;;;;;;;1.40;1.30;;;;;;;14.00;54.08;98431.90;1814548;78;20956;-60
2021/11/20 07:53:49;;;;;;;2.12;1.40;;;;;;;14.02;54.08;98439.70;1811055;77;21031;-61
2021/11/20 07:56:18;;;;;;;1.52;1.42;;;;;;;14.03;54.06;98438.67;1744593;80;21557;-62
2021/11/20 07:58:46;;;;;;;2.12;1.37;;;;;;;14.04;54.06;98442.46;1749305;81;21080;-60
2021/11/20 08:01:13;;;;;;;1.30;1.20;;;;;;;14.05;54.03;98461.44;1805007;77;21085;-60
2021/11/20 08:03:42;;;;;;;1.40;1.20;;;;;;;14.08;54.00;98457.49;1803475;78;21573;-60
2021/11/20 08:06:24;;;;;;;1.42;1.32;;;;;;;14.09;54.00;98464.48;1796445;78;21037;-61
2021/11/20 08:09:04;;;;;;;1.52;1.42;;;;;;;14.12;53.96;98462.71;1798615;78;21059;-61
2021/11/20 08:11:49;;;;;;;1.92;1.20;;;;;;;14.13;53.92;98472.34;1793362;78;21045;-61
2021/11/20 08:14:20;;;;;;;1.40;1.30;;;;;;;14.15;53.88;98466.25;1797498;79;21026;-61
2021/11/20 08:16:51;;;;;;;1.40;1.22;;;;;;;14.20;53.88;98480.27;1790906;77;21029;-62
2021/11/20 08:19:38;;;;;;;1.47;1.37;;;;;;;14.23;53.93;98481.17;1787502;79;21072;-60
2021/11/20 08:22:07;;;;;;;1.20;1.10;;;;;;;14.26;53.97;98477.54;1805332;77;21100;-60
2021/11/20 08:24:35;;;;;;;1.37;1.20;;;;;;;14.29;54.04;98479.78;1803666;77;21004;-62
2021/11/20 08:27:07;;;;;;;1.37;1.25;;;;;;;14.32;54.04;98480.65;1789567;79;21121;-61
2021/11/20 08:29:37;;;;;;;1.50;1.40;;;;;;;14.37;54.07;98485.34;1794108;79;21048;-61
2021/11/20 08:32:02;;;;;;;2.10;1.27;;;;;;;14.40;54.06;98480.06;1787810;79;21646;-61
2021/11/20 08:34:32;;;;;;;1.30;1.10;;;;;;;14.43;54.00;98476.92;1788048;78;21103;-61
2021/11/20 08:37:18;;;;;;;0.90;0.90;;;;;;;14.46;53.96;98472.48;1714539;83;21351;-61
2021/11/20 08:40:06;;;;;;;1.05;1.05;;;;;;;14.50;53.90;98475.80;1715275;82;21243;-61
2021/11/20 08:42:35;;;;;;;1.45;1.35;;;;;;;14.52;53.92;98476.92;1747423;79;21061;-61
2021/11/20 08:45:09;;;;;;;1.70;1.40;;;;;;;14.57;53.94;98483.79;1790428;78;21017;-62
2021/11/20 08:47:37;;;;;;;1.50;1.22;;;;;;;14.61;53.86;98479.62;1809102;79;20989;-60
2021/11/20 08:50:07;;;;;;;1.70;1.30;;;;;;;14.64;53.92;98475.17;1807424;77;21588;-61
2021/11/20 08:52:36;;;;;;;1.40;1.27;;;;;;;14.67;53.80;98467.22;1808944;78;21032;-62
2021/11/20 08:55:04;;;;;;;1.85;1.37;;;;;;;14.70;53.67;98470.78;1785086;79;21105;-61
2021/11/20 08:57:30;;;;;;;1.47;1.37;;;;;;;14.72;53.58;98451.33;1795507;79;21873;-62
2021/11/20 08:59:59;;;;;;;1.62;1.50;;;;;;;14.75;53.60;98460.21;1797694;78;21037;-60
2021/11/20 09:02:41;;;;;;;1.70;1.22;;;;;;;14.78;53.60;98465.64;1748440;79;21068;-62
2021/11/20 09:05:29;;;;;;;1.65;1.20;;;;;;;14.82;53.64;98464.14;1803014;78;21074;-61
2021/11/20 09:08:21;;;;;;;2.58;1.20;;;;;;;14.87;53.67;98465.59;1808598;77;21095;-61
2021/11/20 09:10:57;;;;;;;3.00;1.50;;;;;;;14.92;53.69;98469.23;1792427;78;21024;-63
2021/11/20 09:13:33;;;;;;;1.82;1.45;;;;;;;14.99;53.90;98454.44;1803756;77;21595;-61
2021/11/20 09:16:05;;;;;;;1.52;1.12;;;;;;;15.03;53.95;98451.59;1806240;77;21056;-61
2021/11/20 09:18:34;;;;;;;1.40;1.30;;;;;;;15.08;53.78;98465.08;1804623;77;21080;-61
2021/11/20 09:21:01;;;;;;;2.20;1.50;;;;;;;15.11;53.59;98472.66;1801048;78;21531;-64
2021/11/20 09:23:39;;;;;;;1.35;1.25;;;;;;;15.15;53.45;98482.38;1706540;82;21112;-61
2021/11/20 09:26:08;;;;;;;2.08;1.50;;;;;;;15.17;53.36;98468.79;1786476;79;21063;-62
2021/11/20 09:28:35;;;;;;;3.52;1.90;;;;;;;15.20;53.27;98472.33;1826198;77;21047;-62
2021/11/20 09:31:05;;;;;;;1.50;1.30;;;;;;;15.25;53.32;98477.28;1790428;78;21096;-62
2021/11/20 09:33:32;;;;;;;1.75;1.45;;;;;;;15.30;53.45;98472.07;1796268;78;21083;-61
2021/11/20 09:35:59;;;;;;;2.10;1.42;;;;;;;15.37;53.62;98468.47;1798265;78;21254;-62
2021/11/20 09:38:44;;;;;;;1.25;1.10;;;;;;;15.42;53.68;98463.25;1798370;78;21040;-62
2021/11/20 09:41:19;;;;;;;2.12;1.37;;;;;;;15.51;53.67;98465.36;1802714;77;21010;-64
2021/11/20 09:43:49;;;;;;;1.52;1.20;;;;;;;15.58;53.55;98456.40;1771380;80;21103;-61
2021/11/20 09:46:34;;;;;;;1.82;1.45;;;;;;;15.65;53.52;98449.88;1761932;80;21026;-62
2021/11/20 09:49:04;;;;;;;;;;;;;;;15.72;53.44;98463.14;1772661;80;21040;-63
2021/11/20 09:51:42;;;;;;;1.87;1.27;;;;;;;15.81;53.40;98460.44;1739528;82;20224;-63
2021/11/20 09:54:28;;;;;;;1.55;1.20;;;;;;;15.85;53.43;98450.08;1758118;80;21033;-63
2021/11/20 09:57:16;;;;;;;2.10;1.37;;;;;;;15.93;53.33;98456.41;1751034;79;21109;-62
2021/11/20 09:59:59;;;;;;;1.30;1.20;;;;;;;15.99;53.25;98458.16;1752007;80;21531;-63
2021/11/20 10:02:57;;;;;;;1.30;1.20;;;;;;;16.06;53.21;98464.20;1749980;80;26582;-62
2021/11/20 10:05:35;;;;;;;1.35;1.20;;;;;;;16.13;53.17;98460.08;1764744;80;21296;-65
2021/11/20 10:08:13;;;;;;;1.50;1.12;;;;;;;16.18;53.11;98452.13;1763888;80;21478;-63
2021/11/20 10:10:48;;;;;;;1.95;1.47;;;;;;;16.22;53.07;98446.58;1753834;80;22007;-63
2021/11/20 10:13:31;;;;;;;2.05;1.20;;;;;;;16.29;53.02;98466.57;1725637;80;21034;-64
2021/11/20 10:16:13;;;;;;;1.45;1.00;;;;;;;16.34;52.95;98469.36;1763319;79;21020;-64
2021/11/20 10:18:53;;;;;;;1.55;1.37;;;;;;;16.40;52.98;98454.17;1735015;80;21024;-64
2021/11/20 10:21:29;;;;;;;2.55;1.52;;;;;;;16.45;52.95;98473.05;1743758;80;21040;-64
2021/11/20 10:24:34;;;;;;;1.40;1.20;;;;;;;16.50;52.86;98483.35;1751424;80;21115;-63
2021/11/20 10:27:22;;;;;;;;;;;;;;;16.55;52.78;98492.55;1756814;80;21501;-64
2021/11/20 10:30:18;;;;;;;1.75;1.30;;;;;;;16.60;52.76;98492.66;1759328;80;20167;-63
2021/11/20 10:33:21;;;;;;;1.55;1.37;;;;;;;16.62;52.76;98489.21;1746080;79;21072;-64
2021/11/20 10:36:01;;;;;;;1.67;1.30;;;;;;;16.65;52.75;98490.89;1757462;79;21080;-64
2021/11/20 10:38:47;;;;;;;1.40;1.30;;;;;;;16.70;52.70;98484.27;1759179;80;21193;-63
2021/11/20 10:41:36;;;;;;;1.67;1.50;;;;;;;16.76;52.66;98491.08;1728735;81;21056;-65
2021/11/20 10:44:14;;;;;;;1.40;1.30;;;;;;;16.82;52.62;98494.98;1738407;80;21092;-64
2021/11/20 10:47:07;;;;;;;1.92;1.40;;;;;;;16.87;52.67;98500.45;1731360;81;21043;-63
2021/11/20 10:49:58;;;;;;;2.10;1.60;;;;;;;16.94;52.61;98484.73;1731014;80;21031;-63
2021/11/20 10:53:03;;;;;;;1.25;1.05;;;;;;;16.99;52.51;98493.69;1742127;80;23063;-64
2021/11/20 10:56:13;;;;;;;1.90;1.40;;;;;;;17.05;52.51;98475.29;1741139;81;21029;-63
2021/11/20 10:58:51;;;;;;;1.32;1.22;;;;;;;17.10;52.45;98512.15;1739591;80;21060;-65
2021/11/20 11:01:38;;;;;;;1.20;1.10;;;;;;;17.14;52.32;98537.98;1753865;79;21028;-64
2021/11/20 11:04:40;;;;;;;1.45;1.35;;;;;;;17.18;52.36;98529.73;1708288;81;21097;-64
2021/11/20 11:07:21;;;;;;;1.40;1.27;;;;;;;17.22;52.28;98521.48;1754225;80;21252;-63
2021/11/20 11:10:01;;;;;;;1.67;1.20;;;;;;;17.27;52.24;98517.55;1736042;80;21126;-64
2021/11/20 11:12:40;;;;;;;1.30;1.20;;;;;;;17.32;52.20;98513.59;1733597;80;21043;-63
2021/11/20 11:15:27;;;;;;;2.20;1.62;;;;;;;17.36;52.13;98526.81;1740673;80;21489;-63
2021/11/20 11:18:17;;;;;;;1.17;1.10;;;;;;;17.40;52.06;98533.36;1744293;80;21761;-63
2021/11/20 11:21:29;;;;;;;1.30;1.20;;;;;;;17.43;51.95;98548.16;1738705;80;21167;-63
2021/11/20 11:24:20;;;;;;;1.98;1.30;;;;;;;17.44;51.90;98555.98;1740053;80;21567;-64
2021/11/20 11:27:19;;;;;;;1.62;1.20;;;;;;;17.44;51.80;98554.63;1744501;81;21049;-63
2021/11/20 11:30:00;;;;;;;1.52;1.30;;;;;;;17.44;51.78;98557.32;1742378;80;21088;-65
2021/11/20 11:32:33;;;;;;;1.45;1.35;;;;;;;17.43;51.74;98567.76;1729920;80;21090;-63
2021/11/20 11:35:08;;;;;;;1.92;1.32;;;;;;;17.41;51.71;98556.98;1739824;80;21095;-64
2021/11/20 11:37:51;;;;;;;1.60;1.50;;;;;;;17.41;51.63;98561.81;1737511;81;21046;-63
2021/11/20 11:40:41;;;;;;;1.70;1.50;;;;;;;17.42;51.62;98569.33;1754305;79;21013;-67
2021/11/20 11:43:41;;;;;;;2.92;1.30;;;;;;;17.43;51.57;98573.13;1758172;80;20985;-63
2021/11/20 11:46:31;;;;;;;1.17;1.00;;;;;;;17.43;51.53;98565.08;1743410;80;21067;-64
2021/11/20 11:49:26;;;;;;;2.52;1.42;;;;;;;17.44;51.47;98559.17;1746538;81;21980;-65
2021/11/20 11:52:16;;;;;;;2.12;1.32;;;;;;;17.46;51.46;98552.52;1755388;80;21192;-62
2021/11/20 11:55:21;;;;;;;5.00;2.83;;;;;;;17.51;51.41;98575.14;1753137;80;21095;-62
2021/11/20 11:58:26;;;;;;;6.45;3.25;;;;;;;17.58;52.96;98575.81;1749791;80;21507;-63
2021/11/20 12:01:06;;;;;;;6.72;3.10;;;;;;;17.69;56.19;98559.63;1754145;80;21068;-65
2021/11/20 12:03:38;;;;;;;9.78;3.92;;;;;;;17.82;57.75;98563.84;1754817;80;21296;-64
2021/11/20 12:06:25;;;;;;;7.22;3.33;;;;;;;17.92;58.71;98570.48;1754334;79;21080;-63